Terminal Aerodrome Forecast
Issued by NWS

Home | Current Version | Previous Version | Graphics & Text | Print | Product List | Glossary On
Versions: 1 2 3 4 5 6 7 8 9 10 11 12 13 14 15 16 17 18 19
000
FTUS43 KICT 011125
TAFRSL
TAF
KRSL 011125Z 0112/0212 19003KT P6SM OVC030
     FM011600 33006KT P6SM SCT020 BKN130
     FM012300 05003KT P6SM BKN130=

USA.gov is the U.S. government's official web portal to all federal, state and local government web resources and services.